sensor_id;sensor_type;location;lat;lon;timestamp;P1;durP1;ratioP1;P2;durP2;ratioP2
10063;SDS011;5071;52.360;13.134;2022-10-16T00:03:15;2.90;;;1.30;;
10063;SDS011;5071;52.360;13.134;2022-10-16T00:08:19;1.53;;;1.17;;
10063;SDS011;5071;52.360;13.134;2022-10-16T00:13:21;1.27;;;1.17;;
10063;SDS011;5071;52.360;13.134;2022-10-16T00:18:23;1.30;;;1.20;;
10063;SDS011;5071;52.360;13.134;2022-10-16T00:23:27;2.40;;;1.37;;
10063;SDS011;5071;52.360;13.134;2022-10-16T00:28:29;1.40;;;1.27;;
10063;SDS011;5071;52.360;13.134;2022-10-16T00:33:31;1.27;;;1.13;;
10063;SDS011;5071;52.360;13.134;2022-10-16T00:38:34;1.27;;;1.17;;
10063;SDS011;5071;52.360;13.134;2022-10-16T00:43:38;1.60;;;1.13;;
10063;SDS011;5071;52.360;13.134;2022-10-16T00:48:42;1.37;;;1.20;;
10063;SDS011;5071;52.360;13.134;2022-10-16T00:53:49;1.47;;;1.33;;
10063;SDS011;5071;52.360;13.134;2022-10-16T00:58:51;1.00;;;0.90;;
10063;SDS011;5071;52.360;13.134;2022-10-16T01:03:53;2.80;;;1.33;;
10063;SDS011;5071;52.360;13.134;2022-10-16T01:09:06;1.60;;;1.30;;
10063;SDS011;5071;52.360;13.134;2022-10-16T01:14:15;1.73;;;1.10;;
10063;SDS011;5071;52.360;13.134;2022-10-16T01:19:26;1.30;;;1.13;;
10063;SDS011;5071;52.360;13.134;2022-10-16T01:24:42;1.10;;;1.00;;
10063;SDS011;5071;52.360;13.134;2022-10-16T01:29:51;3.07;;;1.60;;
10063;SDS011;5071;52.360;13.134;2022-10-16T01:34:56;1.40;;;1.30;;
10063;SDS011;5071;52.360;13.134;2022-10-16T01:40:04;4.20;;;1.37;;
10063;SDS011;5071;52.360;13.134;2022-10-16T01:45:13;1.20;;;1.10;;
10063;SDS011;5071;52.360;13.134;2022-10-16T01:50:18;2.33;;;1.30;;
10063;SDS011;5071;52.360;13.134;2022-10-16T01:55:22;3.73;;;1.50;;
10063;SDS011;5071;52.360;13.134;2022-10-16T02:00:30;1.63;;;1.53;;
10063;SDS011;5071;52.360;13.134;2022-10-16T02:05:34;1.57;;;1.10;;
10063;SDS011;5071;52.360;13.134;2022-10-16T02:10:42;1.13;;;1.03;;
10063;SDS011;5071;52.360;13.134;2022-10-16T02:15:45;1.07;;;1.03;;
10063;SDS011;5071;52.360;13.134;2022-10-16T02:20:48;2.33;;;1.27;;
10063;SDS011;5071;52.360;13.134;2022-10-16T02:25:54;2.53;;;1.20;;
10063;SDS011;5071;52.360;13.134;2022-10-16T02:31:01;2.10;;;1.20;;
10063;SDS011;5071;52.360;13.134;2022-10-16T02:36:06;1.27;;;1.17;;
10063;SDS011;5071;52.360;13.134;2022-10-16T02:41:09;1.80;;;1.20;;
10063;SDS011;5071;52.360;13.134;2022-10-16T02:46:12;1.20;;;1.10;;
10063;SDS011;5071;52.360;13.134;2022-10-16T02:51:14;1.43;;;1.10;;
10063;SDS011;5071;52.360;13.134;2022-10-16T02:56:16;2.33;;;1.20;;
10063;SDS011;5071;52.360;13.134;2022-10-16T03:01:21;1.20;;;1.10;;
10063;SDS011;5071;52.360;13.134;2022-10-16T03:06:23;1.63;;;1.40;;
10063;SDS011;5071;52.360;13.134;2022-10-16T03:11:26;1.53;;;1.10;;
10063;SDS011;5071;52.360;13.134;2022-10-16T03:16:29;2.27;;;1.03;;
10063;SDS011;5071;52.360;13.134;2022-10-16T03:21:31;1.13;;;0.90;;
10063;SDS011;5071;52.360;13.134;2022-10-16T03:26:33;2.13;;;1.30;;
10063;SDS011;5071;52.360;13.134;2022-10-16T03:31:36;1.20;;;1.10;;
10063;SDS011;5071;52.360;13.134;2022-10-16T03:36:39;1.63;;;1.20;;
10063;SDS011;5071;52.360;13.134;2022-10-16T03:41:41;1.50;;;1.10;;
10063;SDS011;5071;52.360;13.134;2022-10-16T03:46:44;1.97;;;1.30;;
10063;SDS011;5071;52.360;13.134;2022-10-16T03:51:46;2.13;;;1.30;;
10063;SDS011;5071;52.360;13.134;2022-10-16T03:56:48;2.37;;;1.30;;
10063;SDS011;5071;52.360;13.134;2022-10-16T04:01:52;2.17;;;1.47;;
10063;SDS011;5071;52.360;13.134;2022-10-16T04:06:54;3.00;;;1.37;;
10063;SDS011;5071;52.360;13.134;2022-10-16T04:11:55;1.40;;;1.30;;
10063;SDS011;5071;52.360;13.134;2022-10-16T04:16:59;1.20;;;1.10;;
10063;SDS011;5071;52.360;13.134;2022-10-16T04:22:01;2.50;;;1.30;;
10063;SDS011;5071;52.360;13.134;2022-10-16T04:27:03;4.57;;;1.67;;
10063;SDS011;5071;52.360;13.134;2022-10-16T04:32:06;1.03;;;1.00;;
10063;SDS011;5071;52.360;13.134;2022-10-16T04:37:09;1.40;;;1.30;;
10063;SDS011;5071;52.360;13.134;2022-10-16T04:42:11;1.40;;;1.30;;
10063;SDS011;5071;52.360;13.134;2022-10-16T04:47:14;2.63;;;1.20;;
10063;SDS011;5071;52.360;13.134;2022-10-16T04:52:17;1.40;;;1.20;;
10063;SDS011;5071;52.360;13.134;2022-10-16T04:57:19;2.17;;;1.30;;
10063;SDS011;5071;52.360;13.134;2022-10-16T05:02:22;4.13;;;1.47;;
10063;SDS011;5071;52.360;13.134;2022-10-16T05:07:24;1.83;;;1.50;;
10063;SDS011;5071;52.360;13.134;2022-10-16T05:12:27;1.30;;;1.10;;
10063;SDS011;5071;52.360;13.134;2022-10-16T05:17:30;2.30;;;1.60;;
10063;SDS011;5071;52.360;13.134;2022-10-16T05:22:32;1.60;;;1.30;;
10063;SDS011;5071;52.360;13.134;2022-10-16T05:27:33;1.33;;;1.23;;
10063;SDS011;5071;52.360;13.134;2022-10-16T05:32:37;1.70;;;1.60;;
10063;SDS011;5071;52.360;13.134;2022-10-16T05:37:38;2.53;;;1.43;;
10063;SDS011;5071;52.360;13.134;2022-10-16T05:42:40;1.57;;;1.47;;
10063;SDS011;5071;52.360;13.134;2022-10-16T05:47:44;1.70;;;1.60;;
10063;SDS011;5071;52.360;13.134;2022-10-16T05:52:47;2.57;;;2.00;;
10063;SDS011;5071;52.360;13.134;2022-10-16T05:57:49;2.00;;;1.80;;
10063;SDS011;5071;52.360;13.134;2022-10-16T06:02:52;2.90;;;2.23;;
10063;SDS011;5071;52.360;13.134;2022-10-16T06:07:55;2.10;;;1.90;;
10063;SDS011;5071;52.360;13.134;2022-10-16T06:12:57;2.00;;;1.80;;
10063;SDS011;5071;52.360;13.134;2022-10-16T06:18:00;2.90;;;1.87;;
10063;SDS011;5071;52.360;13.134;2022-10-16T06:23:02;2.50;;;1.83;;
10063;SDS011;5071;52.360;13.134;2022-10-16T06:28:04;3.77;;;1.80;;
10063;SDS011;5071;52.360;13.134;2022-10-16T06:33:07;1.80;;;1.70;;
10063;SDS011;5071;52.360;13.134;2022-10-16T06:38:10;2.00;;;1.90;;
10063;SDS011;5071;52.360;13.134;2022-10-16T06:43:11;3.40;;;2.27;;
10063;SDS011;5071;52.360;13.134;2022-10-16T06:48:15;2.93;;;2.63;;
10063;SDS011;5071;52.360;13.134;2022-10-16T06:53:16;2.67;;;2.03;;
10063;SDS011;5071;52.360;13.134;2022-10-16T06:58:19;1.40;;;1.30;;
10063;SDS011;5071;52.360;13.134;2022-10-16T07:03:24;4.27;;;1.47;;
10063;SDS011;5071;52.360;13.134;2022-10-16T07:08:28;1.47;;;1.37;;
10063;SDS011;5071;52.360;13.134;2022-10-16T07:13:35;1.60;;;1.47;;
10063;SDS011;5071;52.360;13.134;2022-10-16T07:18:39;2.23;;;1.50;;
10063;SDS011;5071;52.360;13.134;2022-10-16T07:23:43;1.83;;;1.10;;
10063;SDS011;5071;52.360;13.134;2022-10-16T07:28:45;2.17;;;1.10;;
10063;SDS011;5071;52.360;13.134;2022-10-16T07:33:51;1.83;;;1.13;;
10063;SDS011;5071;52.360;13.134;2022-10-16T07:38:53;0.80;;;0.80;;
10063;SDS011;5071;52.360;13.134;2022-10-16T07:44:02;1.40;;;1.17;;
10063;SDS011;5071;52.360;13.134;2022-10-16T07:49:11;1.00;;;0.90;;
10063;SDS011;5071;52.360;13.134;2022-10-16T07:54:14;1.63;;;1.10;;
10063;SDS011;5071;52.360;13.134;2022-10-16T07:59:19;1.13;;;1.03;;
10063;SDS011;5071;52.360;13.134;2022-10-16T08:04:27;2.00;;;0.70;;
10063;SDS011;5071;52.360;13.134;2022-10-16T08:09:32;1.03;;;0.80;;
10063;SDS011;5071;52.360;13.134;2022-10-16T08:14:35;1.23;;;0.93;;
10063;SDS011;5071;52.360;13.134;2022-10-16T08:19:38;0.70;;;0.70;;
10063;SDS011;5071;52.360;13.134;2022-10-16T08:24:40;1.07;;;0.87;;
10063;SDS011;5071;52.360;13.134;2022-10-16T08:29:42;1.50;;;1.10;;
10063;SDS011;5071;52.360;13.134;2022-10-16T08:34:45;0.70;;;0.70;;
10063;SDS011;5071;52.360;13.134;2022-10-16T08:39:47;1.37;;;0.90;;
10063;SDS011;5071;52.360;13.134;2022-10-16T08:44:55;1.40;;;0.80;;
10063;SDS011;5071;52.360;13.134;2022-10-16T08:50:10;1.03;;;0.90;;
10063;SDS011;5071;52.360;13.134;2022-10-16T08:55:17;1.23;;;0.83;;
10063;SDS011;5071;52.360;13.134;2022-10-16T09:00:32;0.70;;;0.70;;
10063;SDS011;5071;52.360;13.134;2022-10-16T09:05:45;1.17;;;0.90;;
10063;SDS011;5071;52.360;13.134;2022-10-16T09:10:55;0.70;;;0.70;;
10063;SDS011;5071;52.360;13.134;2022-10-16T09:16:02;0.73;;;0.70;;
10063;SDS011;5071;52.360;13.134;2022-10-16T09:21:18;1.00;;;0.80;;
10063;SDS011;5071;52.360;13.134;2022-10-16T09:26:23;1.37;;;0.87;;
10063;SDS011;5071;52.360;13.134;2022-10-16T09:31:25;0.80;;;0.80;;
10063;SDS011;5071;52.360;13.134;2022-10-16T09:36:29;0.80;;;0.70;;
10063;SDS011;5071;52.360;13.134;2022-10-16T09:41:41;2.03;;;0.70;;
10063;SDS011;5071;52.360;13.134;2022-10-16T09:46:44;0.73;;;0.57;;
10063;SDS011;5071;52.360;13.134;2022-10-16T09:51:48;0.80;;;0.80;;
10063;SDS011;5071;52.360;13.134;2022-10-16T09:56:49;0.40;;;0.40;;
10063;SDS011;5071;52.360;13.134;2022-10-16T10:01:51;0.40;;;0.40;;
10063;SDS011;5071;52.360;13.134;2022-10-16T10:06:57;1.20;;;0.82;;
10063;SDS011;5071;52.360;13.134;2022-10-16T10:11:59;0.50;;;0.50;;
10063;SDS011;5071;52.360;13.134;2022-10-16T10:17:12;0.85;;;0.55;;
10063;SDS011;5071;52.360;13.134;2022-10-16T10:27:49;0.73;;;0.50;;
10063;SDS011;5071;52.360;13.134;2022-10-16T10:33:11;0.88;;;0.57;;
10063;SDS011;5071;52.360;13.134;2022-10-16T10:38:24;0.63;;;0.60;;
10063;SDS011;5071;52.360;13.134;2022-10-16T10:43:38;0.45;;;0.45;;
10063;SDS011;5071;52.360;13.134;2022-10-16T10:48:54;0.80;;;0.50;;
10063;SDS011;5071;52.360;13.134;2022-10-16T10:54:13;2.38;;;0.60;;
10063;SDS011;5071;52.360;13.134;2022-10-16T10:59:27;0.40;;;0.40;;
10063;SDS011;5071;52.360;13.134;2022-10-16T11:04:59;1.02;;;0.55;;
10063;SDS011;5071;52.360;13.134;2022-10-16T11:10:19;0.75;;;0.30;;
10063;SDS011;5071;52.360;13.134;2022-10-16T11:15:25;0.43;;;0.43;;
10063;SDS011;5071;52.360;13.134;2022-10-16T11:20:31;1.50;;;0.52;;
10063;SDS011;5071;52.360;13.134;2022-10-16T11:25:37;0.40;;;0.40;;
10063;SDS011;5071;52.360;13.134;2022-10-16T11:30:42;2.25;;;0.43;;
10063;SDS011;5071;52.360;13.134;2022-10-16T11:35:47;0.73;;;0.52;;
10063;SDS011;5071;52.360;13.134;2022-10-16T11:40:56;0.40;;;0.40;;
10063;SDS011;5071;52.360;13.134;2022-10-16T11:46:04;0.60;;;0.40;;
10063;SDS011;5071;52.360;13.134;2022-10-16T11:51:11;0.50;;;0.40;;
10063;SDS011;5071;52.360;13.134;2022-10-16T11:56:19;0.50;;;0.40;;
10063;SDS011;5071;52.360;13.134;2022-10-16T12:01:25;0.65;;;0.65;;
10063;SDS011;5071;52.360;13.134;2022-10-16T12:06:34;0.45;;;0.40;;
10063;SDS011;5071;52.360;13.134;2022-10-16T12:11:40;0.20;;;0.20;;
10063;SDS011;5071;52.360;13.134;2022-10-16T12:16:50;0.85;;;0.50;;
10063;SDS011;5071;52.360;13.134;2022-10-16T12:21:54;0.28;;;0.28;;
10063;SDS011;5071;52.360;13.134;2022-10-16T12:27:00;0.30;;;0.30;;
10063;SDS011;5071;52.360;13.134;2022-10-16T12:32:03;0.45;;;0.30;;
10063;SDS011;5071;52.360;13.134;2022-10-16T12:37:07;0.60;;;0.60;;
10063;SDS011;5071;52.360;13.134;2022-10-16T12:42:30;0.30;;;0.30;;
10063;SDS011;5071;52.360;13.134;2022-10-16T12:47:46;0.20;;;0.20;;
10063;SDS011;5071;52.360;13.134;2022-10-16T12:52:49;0.70;;;0.50;;
10063;SDS011;5071;52.360;13.134;2022-10-16T12:58:03;0.40;;;0.40;;
10063;SDS011;5071;52.360;13.134;2022-10-16T13:09:09;0.50;;;0.50;;
10063;SDS011;5071;52.360;13.134;2022-10-16T13:14:24;0.50;;;0.50;;
10063;SDS011;5071;52.360;13.134;2022-10-16T13:19:48;2.58;;;0.47;;
10063;SDS011;5071;52.360;13.134;2022-10-16T13:25:01;4.50;;;2.50;;
10063;SDS011;5071;52.360;13.134;2022-10-16T13:30:18;1.73;;;1.40;;
10063;SDS011;5071;52.360;13.134;2022-10-16T13:35:22;0.63;;;0.50;;
10063;SDS011;5071;52.360;13.134;2022-10-16T13:40:26;1.92;;;0.70;;
10063;SDS011;5071;52.360;13.134;2022-10-16T13:45:29;0.40;;;0.40;;
10063;SDS011;5071;52.360;13.134;2022-10-16T13:50:31;0.40;;;0.40;;
10063;SDS011;5071;52.360;13.134;2022-10-16T13:55:35;0.30;;;0.30;;
10063;SDS011;5071;52.360;13.134;2022-10-16T14:00:51;0.60;;;0.60;;
10063;SDS011;5071;52.360;13.134;2022-10-16T14:05:56;1.25;;;0.95;;
10063;SDS011;5071;52.360;13.134;2022-10-16T14:11:02;2.08;;;0.70;;
10063;SDS011;5071;52.360;13.134;2022-10-16T14:16:07;0.47;;;0.47;;
10063;SDS011;5071;52.360;13.134;2022-10-16T14:21:17;0.50;;;0.50;;
10063;SDS011;5071;52.360;13.134;2022-10-16T14:26:21;0.40;;;0.40;;
10063;SDS011;5071;52.360;13.134;2022-10-16T14:31:28;0.40;;;0.40;;
10063;SDS011;5071;52.360;13.134;2022-10-16T14:36:33;1.00;;;0.40;;
10063;SDS011;5071;52.360;13.134;2022-10-16T14:41:40;0.28;;;0.28;;
10063;SDS011;5071;52.360;13.134;2022-10-16T14:46:47;0.50;;;0.43;;
10063;SDS011;5071;52.360;13.134;2022-10-16T14:51:49;0.70;;;0.70;;
10063;SDS011;5071;52.360;13.134;2022-10-16T14:56:51;0.43;;;0.40;;
10063;SDS011;5071;52.360;13.134;2022-10-16T15:01:57;0.50;;;0.50;;
10063;SDS011;5071;52.360;13.134;2022-10-16T15:06:59;0.40;;;0.40;;
10063;SDS011;5071;52.360;13.134;2022-10-16T15:12:02;0.50;;;0.43;;
10063;SDS011;5071;52.360;13.134;2022-10-16T15:17:07;0.83;;;0.50;;
10063;SDS011;5071;52.360;13.134;2022-10-16T15:22:10;0.83;;;0.40;;
10063;SDS011;5071;52.360;13.134;2022-10-16T15:27:13;0.43;;;0.43;;
10063;SDS011;5071;52.360;13.134;2022-10-16T15:32:16;2.40;;;0.53;;
10063;SDS011;5071;52.360;13.134;2022-10-16T15:37:18;0.40;;;0.40;;
10063;SDS011;5071;52.360;13.134;2022-10-16T15:42:20;0.77;;;0.43;;
10063;SDS011;5071;52.360;13.134;2022-10-16T15:47:23;1.60;;;0.33;;
10063;SDS011;5071;52.360;13.134;2022-10-16T15:52:26;0.93;;;0.30;;
10063;SDS011;5071;52.360;13.134;2022-10-16T15:57:28;0.40;;;0.40;;
10063;SDS011;5071;52.360;13.134;2022-10-16T16:02:32;0.50;;;0.47;;
10063;SDS011;5071;52.360;13.134;2022-10-16T16:07:34;0.50;;;0.50;;
10063;SDS011;5071;52.360;13.134;2022-10-16T16:12:36;0.50;;;0.43;;
10063;SDS011;5071;52.360;13.134;2022-10-16T16:17:40;0.70;;;0.60;;
10063;SDS011;5071;52.360;13.134;2022-10-16T16:22:42;0.80;;;0.80;;
10063;SDS011;5071;52.360;13.134;2022-10-16T16:27:44;0.97;;;0.70;;
10063;SDS011;5071;52.360;13.134;2022-10-16T16:32:47;1.27;;;0.97;;
10063;SDS011;5071;52.360;13.134;2022-10-16T16:37:49;2.47;;;1.00;;
10063;SDS011;5071;52.360;13.134;2022-10-16T16:42:51;2.87;;;1.40;;
10063;SDS011;5071;52.360;13.134;2022-10-16T16:47:55;1.30;;;1.20;;
10063;SDS011;5071;52.360;13.134;2022-10-16T16:52:57;3.47;;;1.47;;
10063;SDS011;5071;52.360;13.134;2022-10-16T16:57:58;2.47;;;1.93;;
10063;SDS011;5071;52.360;13.134;2022-10-16T17:03:02;0.93;;;0.90;;
10063;SDS011;5071;52.360;13.134;2022-10-16T17:08:05;2.00;;;1.00;;
10063;SDS011;5071;52.360;13.134;2022-10-16T17:13:08;0.97;;;0.90;;
10063;SDS011;5071;52.360;13.134;2022-10-16T17:18:11;1.87;;;1.17;;
10063;SDS011;5071;52.360;13.134;2022-10-16T17:23:14;3.67;;;1.30;;
10063;SDS011;5071;52.360;13.134;2022-10-16T17:28:16;2.50;;;1.30;;
10063;SDS011;5071;52.360;13.134;2022-10-16T17:33:20;1.90;;;1.10;;
10063;SDS011;5071;52.360;13.134;2022-10-16T17:38:21;1.40;;;1.00;;
10063;SDS011;5071;52.360;13.134;2022-10-16T17:43:23;4.13;;;1.37;;
10063;SDS011;5071;52.360;13.134;2022-10-16T17:48:26;2.20;;;1.57;;
10063;SDS011;5071;52.360;13.134;2022-10-16T17:53:28;2.60;;;1.30;;
10063;SDS011;5071;52.360;13.134;2022-10-16T17:58:30;2.33;;;1.23;;
10063;SDS011;5071;52.360;13.134;2022-10-16T18:03:34;3.67;;;1.23;;
10063;SDS011;5071;52.360;13.134;2022-10-16T18:08:35;3.77;;;1.10;;
10063;SDS011;5071;52.360;13.134;2022-10-16T18:13:38;1.50;;;1.10;;
10063;SDS011;5071;52.360;13.134;2022-10-16T18:18:42;1.20;;;1.00;;
10063;SDS011;5071;52.360;13.134;2022-10-16T18:23:45;1.83;;;1.27;;
10063;SDS011;5071;52.360;13.134;2022-10-16T18:28:52;1.50;;;1.40;;
10063;SDS011;5071;52.360;13.134;2022-10-16T18:33:57;1.30;;;1.00;;
10063;SDS011;5071;52.360;13.134;2022-10-16T18:39:01;1.23;;;1.13;;
10063;SDS011;5071;52.360;13.134;2022-10-16T18:44:05;3.53;;;1.50;;
10063;SDS011;5071;52.360;13.134;2022-10-16T18:49:09;2.00;;;1.30;;
10063;SDS011;5071;52.360;13.134;2022-10-16T18:54:12;2.70;;;2.03;;
10063;SDS011;5071;52.360;13.134;2022-10-16T18:59:15;2.83;;;1.60;;
10063;SDS011;5071;52.360;13.134;2022-10-16T19:04:19;1.10;;;1.00;;
10063;SDS011;5071;52.360;13.134;2022-10-16T19:09:22;2.07;;;1.20;;
10063;SDS011;5071;52.360;13.134;2022-10-16T19:14:24;1.43;;;1.27;;
10063;SDS011;5071;52.360;13.134;2022-10-16T19:19:28;2.20;;;1.63;;
10063;SDS011;5071;52.360;13.134;2022-10-16T19:24:30;1.33;;;1.10;;
10063;SDS011;5071;52.360;13.134;2022-10-16T19:29:32;1.90;;;1.20;;
10063;SDS011;5071;52.360;13.134;2022-10-16T19:34:35;1.93;;;1.40;;
10063;SDS011;5071;52.360;13.134;2022-10-16T19:39:37;2.03;;;1.70;;
10063;SDS011;5071;52.360;13.134;2022-10-16T19:44:39;3.13;;;2.17;;
10063;SDS011;5071;52.360;13.134;2022-10-16T19:49:43;1.90;;;1.70;;
10063;SDS011;5071;52.360;13.134;2022-10-16T19:54:45;2.13;;;1.93;;
10063;SDS011;5071;52.360;13.134;2022-10-16T19:59:49;1.87;;;1.70;;
10063;SDS011;5071;52.360;13.134;2022-10-16T20:04:53;3.50;;;2.13;;
10063;SDS011;5071;52.360;13.134;2022-10-16T20:09:55;2.00;;;1.60;;
10063;SDS011;5071;52.360;13.134;2022-10-16T20:14:57;2.33;;;1.47;;
10063;SDS011;5071;52.360;13.134;2022-10-16T20:20:00;2.10;;;1.20;;
10063;SDS011;5071;52.360;13.134;2022-10-16T20:25:02;5.43;;;1.70;;
10063;SDS011;5071;52.360;13.134;2022-10-16T20:30:10;4.70;;;1.37;;
10063;SDS011;5071;52.360;13.134;2022-10-16T20:35:14;1.67;;;1.23;;
10063;SDS011;5071;52.360;13.134;2022-10-16T20:40:16;1.47;;;1.37;;
10063;SDS011;5071;52.360;13.134;2022-10-16T20:45:17;1.60;;;1.30;;
10063;SDS011;5071;52.360;13.134;2022-10-16T20:50:20;1.47;;;1.20;;
10063;SDS011;5071;52.360;13.134;2022-10-16T20:55:23;1.97;;;1.60;;
10063;SDS011;5071;52.360;13.134;2022-10-16T21:00:25;2.00;;;1.17;;
10063;SDS011;5071;52.360;13.134;2022-10-16T21:05:28;2.27;;;1.63;;
10063;SDS011;5071;52.360;13.134;2022-10-16T21:10:31;2.53;;;1.50;;
10063;SDS011;5071;52.360;13.134;2022-10-16T21:15:33;1.53;;;1.33;;
10063;SDS011;5071;52.360;13.134;2022-10-16T21:20:40;5.90;;;1.70;;
10063;SDS011;5071;52.360;13.134;2022-10-16T21:25:46;1.77;;;1.60;;
10063;SDS011;5071;52.360;13.134;2022-10-16T21:30:49;4.67;;;1.83;;
10063;SDS011;5071;52.360;13.134;2022-10-16T21:35:53;1.70;;;1.60;;
10063;SDS011;5071;52.360;13.134;2022-10-16T21:40:55;1.93;;;1.47;;
10063;SDS011;5071;52.360;13.134;2022-10-16T21:45:57;3.23;;;1.70;;
10063;SDS011;5071;52.360;13.134;2022-10-16T21:51:01;1.37;;;1.27;;
10063;SDS011;5071;52.360;13.134;2022-10-16T21:56:03;1.50;;;1.37;;
10063;SDS011;5071;52.360;13.134;2022-10-16T22:01:05;3.33;;;1.53;;
10063;SDS011;5071;52.360;13.134;2022-10-16T22:06:10;2.90;;;1.50;;
10063;SDS011;5071;52.360;13.134;2022-10-16T22:11:14;2.23;;;1.47;;
10063;SDS011;5071;52.360;13.134;2022-10-16T22:16:24;2.10;;;1.40;;
10063;SDS011;5071;52.360;13.134;2022-10-16T22:21:28;1.57;;;1.37;;
10063;SDS011;5071;52.360;13.134;2022-10-16T22:26:30;2.00;;;1.20;;
10063;SDS011;5071;52.360;13.134;2022-10-16T22:31:33;1.80;;;1.67;;
10063;SDS011;5071;52.360;13.134;2022-10-16T22:36:36;2.90;;;1.50;;
10063;SDS011;5071;52.360;13.134;2022-10-16T22:41:38;3.17;;;1.60;;
10063;SDS011;5071;52.360;13.134;2022-10-16T22:46:40;2.57;;;1.57;;
10063;SDS011;5071;52.360;13.134;2022-10-16T22:51:43;2.90;;;1.30;;
10063;SDS011;5071;52.360;13.134;2022-10-16T22:56:45;3.73;;;1.50;;
10063;SDS011;5071;52.360;13.134;2022-10-16T23:01:47;1.73;;;1.63;;
10063;SDS011;5071;52.360;13.134;2022-10-16T23:06:51;2.13;;;1.80;;
10063;SDS011;5071;52.360;13.134;2022-10-16T23:11:53;1.77;;;1.60;;
10063;SDS011;5071;52.360;13.134;2022-10-16T23:16:55;2.03;;;1.77;;
10063;SDS011;5071;52.360;13.134;2022-10-16T23:21:58;1.83;;;1.60;;
10063;SDS011;5071;52.360;13.134;2022-10-16T23:27:00;1.73;;;1.53;;
10063;SDS011;5071;52.360;13.134;2022-10-16T23:32:02;1.83;;;1.60;;
10063;SDS011;5071;52.360;13.134;2022-10-16T23:37:06;1.90;;;1.60;;
10063;SDS011;5071;52.360;13.134;2022-10-16T23:42:08;1.70;;;1.50;;
10063;SDS011;5071;52.360;13.134;2022-10-16T23:47:10;4.63;;;1.63;;
10063;SDS011;5071;52.360;13.134;2022-10-16T23:52:13;2.13;;;1.73;;
10063;SDS011;5071;52.360;13.134;2022-10-16T23:57:15;2.03;;;1.67;;
